Aérodrome :
LOGIN :

S'inscrire | Disclaimer

   EN    FR    IT 

 










Légende :    VFR   VFR Marginal   IFR   IFR Intensif   IFR Très Intensif
Visi : 
Plafond : 
>= 8 km
>= 3000ft
5 à 8 km
1000 à 3000 ft
1500m à 5 km
500 à 1000 ft
800 à 1500m
200 à 500 ft
< 800m
< 200 ft
Symboles :   Orages  Brouillard  Fortes neiges  Fortes précipitations  Vent > 20 kt
SIGMETs :   Divers  Orages  Givrage  Turbulence  Onde Orograph.  Cendres Volcan.






- Altitude de l'aérodrome : 978 ft
- Code IATA : LNZ


LOWL - Linz

DERNIER METAR :
  • 041550Z AUTO 33004KT 9999 -RA BKN060 BKN080 18/13 Q1014 TEMPO RA

METARs EXPIRÉS :
  • 041520Z 33003KT 290V350 9999 -RA FEW025 BKN065 18/11 Q1014 NOSIG
  • 041450Z 34003KT 310V010 9999 FEW025 BKN065 18/12 Q1014 NOSIG
  • 041420Z 31003KT 260V340 9999 -RA FEW027 OVC065 18/12 Q1014 NOSIG
  • 041350Z VRB02KT 9999 FEW027 OVC065 18/12 Q1014 NOSIG
  • 041320Z VRB02KT 9999 FEW027 OVC065 18/12 Q1015 NOSIG
  • 041250Z VRB01KT 9999 FEW032 OVC071 18/12 Q1015 NOSIG

TAF TAF LOWL
Valide du 04 à 12h jusqu'au 05 à 12h UTC


041115Z 0412/0512 26005KT 9999 FEW025 BKN040 TX18/0412Z TN14/0504Z
TEMPO 0412/0417 -RA
BECMG 0417/0420 -RA
BECMG 0422/0501 28008KT
PROB30
TEMPO 0500/0512 3000 RA BKN014



MET'MAP, la Météo Aéronautique d'un coup d'oeil ! - Copyright ORBIFLY Décembre 2007 - Disclaimer

ORBIFLY MET'MAP TEAM :

Programmation & Développement : Alexandra Zaïnal
Sur une idée originale de : Baudouin d'Aumeries
Assistance à la programmation : Marc-Olivier Méhu
Soutien technique & logistique : Manuel Goepfert

Contact : metmap@orbifly.com




SOURCES & CREDITS :

   NOAA